HGH weather

Hangzhou Xiaoshan International Airport
Hangzhou, Zhejiang Province, China

Public forecast

Using degrees Celsius for public forecast. Weather courtesy of forecast.io.

METAR (pilot weather report)

Retrieved 2019/05/22 04:30 UTC (0 seconds ago):

ZSHC 220430Z 25002MPS 200V010 CAVOK 30/10 Q1009 NOSIG

TAF (pilot weather forecast)

Forecast is more than 12 hours old.

Retrieved 2019/05/21 00:00 UTC (1 day ago):

TAF ZSHC 211909Z 2200/2224 23003MPS 3000 HZ NSC TX30/2206Z TN18/2221Z